Terminal Aerodrome Forecast
Issued by NWS

Home | Current Version | Previous Version | Text Only | Print | Product List | Glossary On
Versions: 1 2 3 4 5 6 7 8 9 10 11 12 13 14 15 16 17 18 19
238
FTUS45 KRIW 242332
TAFCPR
TAF
KCPR 242332Z 2500/2524 28012G22KT P6SM VCSH SCT060 BKN080
     FM250200 28010KT P6SM BKN030
     FM251500 28010KT P6SM SCT100=

USA.gov is the U.S. government's official web portal to all federal, state and local government web resources and services.